createdAt,value
2023-12-23T00:01:21.241Z,1.80
2023-12-23T00:04:22.761Z,2.10
2023-12-23T00:07:24.090Z,2.47
2023-12-23T00:10:26.291Z,2.25
2023-12-23T00:13:27.733Z,2.30
2023-12-23T00:16:29.146Z,2.63
2023-12-23T00:19:30.568Z,2.17
2023-12-23T00:22:32.003Z,2.10
2023-12-23T00:25:33.327Z,2.53
2023-12-23T00:28:34.780Z,2.13
2023-12-23T00:31:36.161Z,2.13
2023-12-23T00:34:37.583Z,2.25
2023-12-23T00:37:39.075Z,2.30
2023-12-23T00:40:40.568Z,2.22
2023-12-23T00:43:42.052Z,2.13
2023-12-23T00:46:43.438Z,2.00
2023-12-23T00:49:44.876Z,2.08
2023-12-23T00:52:46.316Z,2.05
2023-12-23T00:55:47.699Z,1.70
2023-12-23T00:58:49.182Z,2.17
2023-12-23T01:01:50.642Z,2.30
2023-12-23T01:04:52.090Z,1.80
2023-12-23T01:07:53.683Z,2.25
2023-12-23T01:10:55.352Z,2.13
2023-12-23T01:13:56.704Z,1.98
2023-12-23T01:16:58.153Z,2.37
2023-12-23T01:19:59.596Z,1.90
2023-12-23T01:23:01.044Z,1.88
2023-12-23T01:26:02.513Z,1.73
2023-12-23T01:29:03.964Z,2.28
2023-12-23T01:32:05.458Z,2.97
2023-12-23T01:35:06.872Z,2.05
2023-12-23T01:38:08.774Z,1.75
2023-12-23T01:41:10.358Z,2.05
2023-12-23T01:44:11.833Z,2.00
2023-12-23T01:47:13.235Z,1.87
2023-12-23T01:50:14.832Z,2.47
2023-12-23T01:53:16.388Z,1.92
2023-12-23T01:56:17.804Z,2.08
2023-12-23T01:59:19.226Z,2.13
2023-12-23T02:02:20.712Z,1.57
2023-12-23T02:05:22.242Z,2.25
2023-12-23T02:08:23.758Z,1.95
2023-12-23T02:11:25.086Z,2.60
2023-12-23T02:14:26.498Z,1.38
2023-12-23T02:17:27.949Z,2.17
2023-12-23T02:20:29.341Z,1.70
2023-12-23T02:23:30.819Z,2.40
2023-12-23T02:26:32.258Z,2.25
2023-12-23T02:29:33.602Z,1.98
2023-12-23T02:32:35.019Z,1.43
2023-12-23T02:35:36.371Z,1.80
2023-12-23T02:38:37.750Z,2.95
2023-12-23T02:41:39.158Z,1.50
2023-12-23T02:44:40.484Z,1.40
2023-12-23T02:47:42.431Z,2.10
2023-12-23T02:50:43.832Z,1.58
2023-12-23T02:53:45.233Z,1.92
2023-12-23T02:56:46.560Z,1.67
2023-12-23T02:59:47.938Z,1.80
2023-12-23T03:02:49.674Z,1.40
2023-12-23T03:05:51.217Z,2.17
2023-12-23T03:08:52.599Z,1.60
2023-12-23T03:11:53.997Z,1.52
2023-12-23T03:14:55.403Z,1.60
2023-12-23T03:17:56.790Z,1.70
2023-12-23T03:20:58.230Z,1.60
2023-12-23T03:23:59.566Z,2.00
2023-12-23T03:27:00.954Z,1.67
2023-12-23T03:30:02.286Z,1.55
2023-12-23T03:33:04.978Z,1.33
2023-12-23T03:36:06.445Z,1.33
2023-12-23T03:39:07.845Z,1.95
2023-12-23T03:42:09.234Z,1.77
2023-12-23T03:45:10.642Z,2.28
2023-12-23T03:48:11.997Z,1.70
2023-12-23T03:51:13.442Z,1.63
2023-12-23T03:54:14.772Z,1.65
2023-12-23T03:57:16.179Z,1.60
2023-12-23T04:00:17.503Z,1.33
2023-12-23T04:03:18.990Z,1.67
2023-12-23T04:06:20.539Z,1.55
2023-12-23T04:09:21.939Z,1.73
2023-12-23T04:12:23.354Z,1.65
2023-12-23T04:15:24.669Z,1.70
2023-12-23T04:18:26.196Z,1.60
2023-12-23T04:21:27.571Z,1.83
2023-12-23T04:24:28.975Z,1.85
2023-12-23T04:27:30.316Z,1.30
2023-12-23T04:30:31.805Z,1.27
2023-12-23T04:33:33.343Z,1.60
2023-12-23T04:36:34.840Z,1.40
2023-12-23T04:39:36.237Z,1.48
2023-12-23T04:42:37.574Z,1.23
2023-12-23T04:45:38.976Z,1.83
2023-12-23T04:48:40.354Z,1.27
2023-12-23T04:51:41.860Z,1.55
2023-12-23T04:54:43.256Z,1.70
2023-12-23T04:57:44.608Z,1.58
2023-12-23T05:00:46.050Z,1.90
2023-12-23T05:03:47.405Z,1.20
2023-12-23T05:06:48.786Z,1.67
2023-12-23T05:09:50.126Z,2.10
2023-12-23T05:12:51.721Z,1.60
2023-12-23T05:15:53.299Z,1.40
2023-12-23T05:18:54.753Z,2.00
2023-12-23T05:21:56.113Z,1.45
2023-12-23T05:24:58.387Z,1.58
2023-12-23T05:27:59.768Z,1.55
2023-12-23T05:31:01.201Z,1.90
2023-12-23T05:34:02.691Z,1.40
2023-12-23T05:37:04.252Z,1.77
2023-12-23T05:40:05.591Z,1.80
2023-12-23T05:43:07.027Z,1.52
2023-12-23T05:46:08.363Z,1.38
2023-12-23T05:49:09.808Z,2.00
2023-12-23T05:52:11.200Z,1.50
2023-12-23T05:55:12.616Z,2.58
2023-12-23T05:58:13.966Z,1.77
2023-12-23T06:01:15.397Z,2.05
2023-12-23T06:04:16.744Z,1.80
2023-12-23T06:07:18.122Z,1.85
2023-12-23T06:10:19.447Z,2.03
2023-12-23T06:13:20.857Z,1.75
2023-12-23T06:16:22.244Z,2.10
2023-12-23T06:19:23.659Z,1.83
2023-12-23T06:22:25.070Z,2.10
2023-12-23T06:25:26.504Z,2.53
2023-12-23T06:28:27.852Z,2.00
2023-12-23T06:31:29.421Z,2.35
2023-12-23T06:34:30.815Z,2.20
2023-12-23T06:37:32.231Z,2.47
2023-12-23T06:40:33.654Z,2.45
2023-12-23T06:43:45.897Z,2.20
2023-12-23T06:46:53.256Z,2.78
2023-12-23T06:49:54.783Z,2.20
2023-12-23T06:52:56.292Z,2.88
2023-12-23T06:55:57.729Z,2.55
2023-12-23T06:58:59.205Z,2.65
2023-12-23T07:02:00.630Z,2.75
2023-12-23T07:05:02.156Z,3.17
2023-12-23T07:08:03.770Z,2.70
2023-12-23T07:11:05.169Z,3.30
2023-12-23T07:14:06.589Z,3.00
2023-12-23T07:17:08.021Z,3.75
2023-12-23T07:20:09.537Z,2.70
2023-12-23T07:23:11.052Z,2.83
2023-12-23T07:26:12.578Z,3.00
2023-12-23T07:29:14.494Z,2.47
2023-12-23T07:32:15.929Z,2.70
2023-12-23T07:35:20.052Z,2.37
2023-12-23T07:38:23.302Z,2.63
2023-12-23T07:41:24.878Z,3.17
2023-12-23T07:44:26.305Z,2.55
2023-12-23T07:47:27.835Z,2.90
2023-12-23T07:50:29.291Z,2.83
2023-12-23T07:53:30.769Z,2.78
2023-12-23T07:56:32.134Z,3.17
2023-12-23T07:59:33.548Z,2.53
2023-12-23T08:02:34.876Z,2.90
2023-12-23T08:05:36.338Z,2.33
2023-12-23T08:08:37.785Z,2.17
2023-12-23T08:11:39.132Z,2.92
2023-12-23T08:14:40.515Z,2.63
2023-12-23T08:17:41.865Z,2.47
2023-12-23T08:20:43.258Z,2.33
2023-12-23T08:23:44.660Z,2.25
2023-12-23T08:26:45.994Z,2.00
2023-12-23T08:29:47.400Z,2.38
2023-12-23T08:32:49.162Z,2.50
2023-12-23T08:35:50.721Z,2.67
2023-12-23T08:38:52.137Z,2.05
2023-12-23T08:41:53.574Z,2.67
2023-12-23T08:44:55.021Z,2.70
2023-12-23T08:47:56.755Z,1.92
2023-12-23T08:50:58.410Z,2.50
2023-12-23T08:53:59.759Z,2.35
2023-12-23T08:57:01.151Z,2.50
2023-12-23T09:00:02.561Z,1.80
2023-12-23T09:03:03.982Z,2.45
2023-12-23T09:06:05.515Z,2.20
2023-12-23T09:09:07.033Z,3.22
2023-12-23T09:12:08.539Z,2.17
2023-12-23T09:15:09.950Z,2.00
2023-12-23T09:18:11.333Z,2.30
2023-12-23T09:21:12.794Z,2.17
2023-12-23T09:24:14.136Z,1.77
2023-12-23T09:27:15.530Z,1.95
2023-12-23T09:30:16.902Z,1.70
2023-12-23T09:33:18.425Z,2.20
2023-12-23T09:36:19.827Z,2.60
2023-12-23T09:39:21.225Z,1.85
2023-12-23T09:42:24.241Z,2.33
2023-12-23T09:45:26.339Z,2.10
2023-12-23T09:48:27.696Z,2.17
2023-12-23T09:51:29.143Z,2.60
2023-12-23T09:54:30.475Z,2.08
2023-12-23T09:57:31.897Z,2.15
2023-12-23T10:00:34.955Z,2.35
2023-12-23T10:03:37.621Z,1.80
2023-12-23T10:06:39.054Z,2.80
2023-12-23T10:09:40.439Z,1.85
2023-12-23T10:12:41.845Z,2.30
2023-12-23T10:15:43.259Z,2.10
2023-12-23T10:18:44.683Z,2.10
2023-12-23T10:21:46.123Z,2.10
2023-12-23T10:24:47.539Z,2.08
2023-12-23T10:27:48.898Z,2.15
2023-12-23T10:30:50.315Z,2.45
2023-12-23T10:33:51.737Z,1.90
2023-12-23T10:36:53.240Z,2.00
2023-12-23T10:39:54.573Z,2.15
2023-12-23T10:42:55.966Z,2.42
2023-12-23T10:45:57.370Z,2.25
2023-12-23T10:48:58.823Z,2.30
2023-12-23T10:52:00.264Z,2.17
2023-12-23T10:55:01.665Z,2.20
2023-12-23T10:58:02.985Z,2.35
2023-12-23T11:01:04.454Z,1.98
2023-12-23T11:04:05.825Z,2.03
2023-12-23T11:07:07.222Z,2.10
2023-12-23T11:10:08.567Z,2.28
2023-12-23T11:13:09.955Z,2.28
2023-12-23T11:16:11.335Z,2.15
2023-12-23T11:19:12.824Z,2.72
2023-12-23T11:22:14.194Z,2.30
2023-12-23T11:25:15.585Z,2.35
2023-12-23T11:28:17.001Z,2.28
2023-12-23T11:31:18.428Z,2.53
2023-12-23T11:34:19.844Z,2.47
2023-12-23T11:37:21.291Z,2.87
2023-12-23T11:40:22.624Z,2.80
2023-12-23T11:43:24.026Z,3.05
2023-12-23T11:46:25.453Z,2.47
2023-12-23T11:49:26.886Z,2.63
2023-12-23T11:52:28.322Z,2.07
2023-12-23T11:55:29.657Z,3.00
2023-12-23T11:58:31.077Z,2.58
2023-12-23T12:01:32.465Z,2.35
2023-12-23T12:04:33.920Z,2.72
2023-12-23T12:07:35.311Z,2.43
2023-12-23T12:10:36.637Z,2.88
2023-12-23T12:13:38.024Z,2.88
2023-12-23T12:16:39.427Z,2.85
2023-12-23T12:19:40.863Z,2.95
2023-12-23T12:22:42.714Z,2.60
2023-12-23T12:25:44.581Z,3.22
2023-12-23T12:28:47.866Z,3.35
2023-12-23T12:31:49.490Z,2.72
2023-12-23T12:34:50.900Z,2.65
2023-12-23T12:37:52.336Z,3.27
2023-12-23T12:40:53.695Z,3.15
2023-12-23T12:43:55.132Z,2.95
2023-12-23T12:46:56.597Z,3.47
2023-12-23T12:50:04.047Z,4.28
2023-12-23T12:53:08.298Z,3.17
2023-12-23T12:56:09.796Z,2.65
2023-12-23T12:59:11.190Z,3.75
2023-12-23T13:02:12.633Z,3.17
2023-12-23T13:05:14.109Z,3.30
2023-12-23T13:08:15.632Z,3.03
2023-12-23T13:11:17.108Z,3.88
2023-12-23T13:14:18.549Z,3.30
2023-12-23T13:17:20.111Z,2.63
2023-12-23T13:20:21.679Z,2.53
2023-12-23T13:23:23.108Z,3.60
2023-12-23T13:26:24.756Z,3.55
2023-12-23T13:29:26.271Z,3.05
2023-12-23T13:32:27.746Z,3.60
2023-12-23T13:35:29.296Z,3.25
2023-12-23T13:38:30.774Z,2.97
2023-12-23T13:41:32.261Z,3.17
2023-12-23T13:44:33.701Z,3.65
2023-12-23T13:47:35.146Z,3.20
2023-12-23T13:50:36.627Z,3.60
2023-12-23T13:53:38.093Z,3.00
2023-12-23T13:56:39.447Z,3.10
2023-12-23T13:59:40.860Z,3.80
2023-12-23T14:02:42.199Z,3.35
2023-12-23T14:05:43.711Z,3.20
2023-12-23T14:08:45.096Z,3.80
2023-12-23T14:11:46.469Z,3.17
2023-12-23T14:14:47.856Z,3.65
2023-12-23T14:17:49.355Z,3.35
2023-12-23T14:20:50.715Z,3.20
2023-12-23T14:23:52.118Z,4.20
2023-12-23T14:26:53.476Z,3.30
2023-12-23T14:29:54.878Z,3.17
2023-12-23T14:32:56.362Z,3.30
2023-12-23T14:35:57.727Z,2.63
2023-12-23T14:38:59.966Z,2.90
2023-12-23T14:42:01.400Z,2.72
2023-12-23T14:45:03.478Z,4.18
2023-12-23T14:48:05.148Z,3.55
2023-12-23T14:51:06.642Z,3.80
2023-12-23T14:54:08.050Z,3.67
2023-12-23T14:57:09.404Z,2.88
2023-12-23T15:00:10.833Z,4.03
2023-12-23T15:03:12.177Z,3.05
2023-12-23T15:06:13.645Z,3.40
2023-12-23T15:09:15.000Z,3.57
2023-12-23T15:12:16.743Z,4.18
2023-12-23T15:15:18.086Z,4.03
2023-12-23T15:18:19.675Z,4.05
2023-12-23T15:21:21.090Z,3.83
2023-12-23T15:24:22.487Z,4.83
2023-12-23T15:27:23.898Z,4.57
2023-12-23T15:30:25.338Z,4.40
2023-12-23T15:33:26.889Z,4.25
2023-12-23T15:36:28.271Z,4.32
2023-12-23T15:39:29.692Z,3.93
2023-12-23T15:42:31.017Z,4.32
2023-12-23T15:45:32.421Z,3.90
2023-12-23T15:48:33.972Z,3.85
2023-12-23T15:51:35.462Z,4.55
2023-12-23T15:54:36.784Z,3.83
2023-12-23T15:57:39.292Z,4.15
2023-12-23T16:00:40.738Z,4.25
2023-12-23T16:03:42.189Z,3.92
2023-12-23T16:06:43.621Z,5.05
2023-12-23T16:09:44.958Z,3.80
2023-12-23T16:12:46.371Z,4.07
2023-12-23T16:15:47.755Z,4.05
2023-12-23T16:18:49.238Z,3.67
2023-12-23T16:21:50.664Z,4.30
2023-12-23T16:24:52.068Z,4.30
2023-12-23T16:27:53.393Z,4.68
2023-12-23T16:30:54.891Z,4.57
2023-12-23T16:33:56.359Z,5.70
2023-12-23T16:36:57.826Z,4.82
2023-12-23T16:39:59.251Z,5.13
2023-12-23T16:43:00.610Z,5.05
2023-12-23T16:46:01.999Z,5.22
2023-12-23T16:49:03.427Z,5.40
2023-12-23T16:52:04.817Z,6.43
2023-12-23T16:55:06.213Z,5.53
2023-12-23T16:58:07.534Z,4.95
2023-12-23T17:01:08.958Z,5.47
2023-12-23T17:04:10.465Z,5.25
2023-12-23T17:07:11.900Z,5.30
2023-12-23T17:10:13.242Z,5.70
2023-12-23T17:13:14.630Z,5.38
2023-12-23T17:16:15.957Z,5.03
2023-12-23T17:19:17.377Z,6.10
2023-12-23T17:22:18.703Z,6.70
2023-12-23T17:25:20.096Z,6.00
2023-12-23T17:28:21.501Z,5.22
2023-12-23T17:31:22.822Z,5.60
2023-12-23T17:34:24.231Z,6.78
2023-12-23T17:37:25.687Z,6.20
2023-12-23T17:40:27.009Z,5.93
2023-12-23T17:43:28.396Z,5.68
2023-12-23T17:46:29.824Z,6.53
2023-12-23T17:49:31.199Z,5.97
2023-12-23T17:52:32.636Z,5.32
2023-12-23T17:55:33.970Z,5.23
2023-12-23T17:58:35.387Z,4.82
2023-12-23T18:01:36.752Z,5.57
2023-12-23T18:04:38.168Z,5.03
2023-12-23T18:07:39.507Z,4.80
2023-12-23T18:10:41.301Z,4.87
2023-12-23T18:13:42.705Z,4.72
2023-12-23T18:16:44.045Z,4.75
2023-12-23T18:19:45.506Z,4.25
2023-12-23T18:22:46.856Z,5.65
2023-12-23T18:25:48.359Z,4.27
2023-12-23T18:28:49.837Z,4.55
2023-12-23T18:31:53.139Z,4.45
2023-12-23T18:34:56.065Z,5.82
2023-12-23T18:37:57.624Z,5.63
2023-12-23T18:40:59.082Z,4.90
2023-12-23T18:44:00.523Z,4.60
2023-12-23T18:47:01.959Z,5.28
2023-12-23T18:50:03.337Z,5.22
2023-12-23T18:53:04.774Z,5.00
2023-12-23T18:56:06.250Z,5.40
2023-12-23T18:59:07.710Z,5.18
2023-12-23T19:02:09.139Z,6.18
2023-12-23T19:05:10.637Z,6.03
2023-12-23T19:08:12.145Z,5.13
2023-12-23T19:11:13.587Z,5.43
2023-12-23T19:14:14.995Z,4.50
2023-12-23T19:17:16.477Z,4.80
2023-12-23T19:20:17.833Z,5.07
2023-12-23T19:23:19.267Z,5.28
2023-12-23T19:26:21.230Z,5.30
2023-12-23T19:29:22.676Z,6.18
2023-12-23T19:32:24.073Z,5.03
2023-12-23T19:35:25.646Z,4.80
2023-12-23T19:38:27.033Z,5.03
2023-12-23T19:41:28.513Z,4.37
2023-12-23T19:44:30.023Z,4.15
2023-12-23T19:47:31.492Z,5.07
2023-12-23T19:50:33.151Z,4.63
2023-12-23T19:53:34.613Z,4.57
2023-12-23T19:56:36.220Z,4.77
2023-12-23T19:59:38.979Z,5.55
2023-12-23T20:02:40.351Z,4.53
2023-12-23T20:05:41.844Z,4.97
2023-12-23T20:08:43.264Z,5.25
2023-12-23T20:11:44.658Z,4.57
2023-12-23T20:14:46.075Z,4.63
2023-12-23T20:17:47.583Z,4.47
2023-12-23T20:20:49.137Z,4.60
2023-12-23T20:23:50.509Z,4.30
2023-12-23T20:26:51.917Z,5.17
2023-12-23T20:29:53.225Z,4.57
2023-12-23T20:32:54.925Z,4.50
2023-12-23T20:35:56.579Z,4.35
2023-12-23T20:38:57.973Z,4.18
2023-12-23T20:41:59.372Z,4.27
2023-12-23T20:45:00.772Z,4.30
2023-12-23T20:48:02.259Z,4.30
2023-12-23T20:51:03.633Z,3.60
2023-12-23T20:54:05.046Z,4.60
2023-12-23T20:57:06.481Z,4.47
2023-12-23T21:00:07.835Z,4.82
2023-12-23T21:03:09.345Z,4.75
2023-12-23T21:06:10.950Z,4.70
2023-12-23T21:09:12.452Z,5.00
2023-12-23T21:12:13.868Z,4.60
2023-12-23T21:15:15.266Z,4.82
2023-12-23T21:18:16.717Z,4.68
2023-12-23T21:21:18.204Z,4.55
2023-12-23T21:24:19.612Z,5.13
2023-12-23T21:27:20.948Z,4.80
2023-12-23T21:30:22.355Z,3.95
2023-12-23T21:33:23.746Z,5.30
2023-12-23T21:36:25.534Z,5.50
2023-12-23T21:39:26.926Z,4.78
2023-12-23T21:42:28.320Z,5.20
2023-12-23T21:45:29.682Z,5.10
2023-12-23T21:48:31.160Z,6.20
2023-12-23T21:51:32.668Z,5.30
2023-12-23T21:54:34.060Z,4.32
2023-12-23T21:57:35.444Z,4.87
2023-12-23T22:00:36.836Z,4.72
2023-12-23T22:03:38.356Z,5.10
2023-12-23T22:06:39.808Z,4.68
2023-12-23T22:09:41.245Z,4.57
2023-12-23T22:12:42.577Z,4.00
2023-12-23T22:15:43.997Z,4.47
2023-12-23T22:18:45.467Z,5.50
2023-12-23T22:21:48.060Z,5.82
2023-12-23T22:24:49.549Z,5.30
2023-12-23T22:27:50.881Z,4.87
2023-12-23T22:30:52.348Z,4.82
2023-12-23T22:33:53.879Z,4.97
2023-12-23T22:36:55.397Z,4.80
2023-12-23T22:39:56.717Z,5.85
2023-12-23T22:42:58.118Z,4.83
2023-12-23T22:45:59.445Z,5.55
2023-12-23T22:49:00.883Z,5.57
2023-12-23T22:52:02.225Z,5.30
2023-12-23T22:55:03.637Z,4.82
2023-12-23T22:58:04.981Z,5.13
2023-12-23T23:01:06.442Z,5.88
2023-12-23T23:04:07.796Z,5.40
2023-12-23T23:07:09.187Z,6.07
2023-12-23T23:10:10.577Z,6.03
2023-12-23T23:13:11.908Z,5.27
2023-12-23T23:16:13.324Z,5.43
2023-12-23T23:19:14.803Z,6.43
2023-12-23T23:22:16.313Z,5.05
2023-12-23T23:25:17.645Z,5.68
2023-12-23T23:28:19.068Z,6.80
2023-12-23T23:31:20.458Z,6.20
2023-12-23T23:34:21.884Z,5.22
2023-12-23T23:37:23.280Z,5.38
2023-12-23T23:40:24.701Z,5.57
2023-12-23T23:43:26.072Z,5.23
2023-12-23T23:46:27.465Z,4.78
2023-12-23T23:49:28.855Z,4.90
2023-12-23T23:52:30.350Z,5.22
2023-12-23T23:55:31.744Z,6.43
2023-12-23T23:58:33.075Z,5.47
